sensor_id;sensor_type;location;lat;lon;timestamp;temperature;humidity
49829;DHT22;35723;51.194;5.112;2022-08-20T00:00:11;22.50;99.90
49829;DHT22;35723;51.194;5.112;2022-08-20T00:02:45;22.40;99.90
49829;DHT22;35723;51.194;5.112;2022-08-20T00:05:12;22.40;99.90
49829;DHT22;35723;51.194;5.112;2022-08-20T00:07:38;22.50;99.90
49829;DHT22;35723;51.194;5.112;2022-08-20T00:10:06;22.50;99.90
49829;DHT22;35723;51.194;5.112;2022-08-20T00:12:33;22.60;99.90
49829;DHT22;35723;51.194;5.112;2022-08-20T00:14:59;22.70;99.90
49829;DHT22;35723;51.194;5.112;2022-08-20T00:17:24;22.70;99.90
49829;DHT22;35723;51.194;5.112;2022-08-20T00:19:50;22.60;99.90
49829;DHT22;35723;51.194;5.112;2022-08-20T00:22:16;22.40;99.90
49829;DHT22;35723;51.194;5.112;2022-08-20T00:24:41;22.10;99.90
49829;DHT22;35723;51.194;5.112;2022-08-20T00:27:07;22.20;99.90
49829;DHT22;35723;51.194;5.112;2022-08-20T00:29:33;22.20;99.90
49829;DHT22;35723;51.194;5.112;2022-08-20T00:31:58;22.20;99.90
49829;DHT22;35723;51.194;5.112;2022-08-20T00:34:24;22.20;99.90
49829;DHT22;35723;51.194;5.112;2022-08-20T00:36:50;22.10;99.90
49829;DHT22;35723;51.194;5.112;2022-08-20T00:39:16;21.90;99.90
49829;DHT22;35723;51.194;5.112;2022-08-20T00:41:41;21.80;99.90
49829;DHT22;35723;51.194;5.112;2022-08-20T00:44:17;21.60;99.90
49829;DHT22;35723;51.194;5.112;2022-08-20T00:46:47;21.50;99.90
49829;DHT22;35723;51.194;5.112;2022-08-20T00:49:22;21.30;99.90
49829;DHT22;35723;51.194;5.112;2022-08-20T00:52:06;21.20;99.90
49829;DHT22;35723;51.194;5.112;2022-08-20T00:54:38;21.20;99.90
49829;DHT22;35723;51.194;5.112;2022-08-20T00:57:12;21.20;99.90
49829;DHT22;35723;51.194;5.112;2022-08-20T00:59:43;21.10;99.90
49829;DHT22;35723;51.194;5.112;2022-08-20T01:02:12;21.20;99.90
49829;DHT22;35723;51.194;5.112;2022-08-20T01:04:39;21.10;99.90
49829;DHT22;35723;51.194;5.112;2022-08-20T01:07:05;20.70;99.90
49829;DHT22;35723;51.194;5.112;2022-08-20T01:09:33;20.50;99.90
49829;DHT22;35723;51.194;5.112;2022-08-20T01:12:00;20.40;99.90
49829;DHT22;35723;51.194;5.112;2022-08-20T01:14:26;20.40;99.90
49829;DHT22;35723;51.194;5.112;2022-08-20T01:16:56;20.60;99.90
49829;DHT22;35723;51.194;5.112;2022-08-20T01:19:33;20.50;99.90
49829;DHT22;35723;51.194;5.112;2022-08-20T01:22:01;20.30;99.90
49829;DHT22;35723;51.194;5.112;2022-08-20T01:24:51;20.40;99.90
49829;DHT22;35723;51.194;5.112;2022-08-20T01:27:20;20.30;99.90
49829;DHT22;35723;51.194;5.112;2022-08-20T01:29:46;20.60;99.90
49829;DHT22;35723;51.194;5.112;2022-08-20T01:32:13;20.60;99.90
49829;DHT22;35723;51.194;5.112;2022-08-20T01:34:38;20.70;99.90
49829;DHT22;35723;51.194;5.112;2022-08-20T01:37:04;20.80;99.90
49829;DHT22;35723;51.194;5.112;2022-08-20T01:39:33;20.90;99.90
49829;DHT22;35723;51.194;5.112;2022-08-20T01:44:37;21.20;99.90
49829;DHT22;35723;51.194;5.112;2022-08-20T01:47:23;20.70;99.90
49829;DHT22;35723;51.194;5.112;2022-08-20T01:49:53;20.60;99.90
49829;DHT22;35723;51.194;5.112;2022-08-20T01:52:36;20.40;99.90
49829;DHT22;35723;51.194;5.112;2022-08-20T01:55:06;20.20;99.90
49829;DHT22;35723;51.194;5.112;2022-08-20T01:57:32;20.40;99.90
49829;DHT22;35723;51.194;5.112;2022-08-20T01:59:58;20.50;99.90
49829;DHT22;35723;51.194;5.112;2022-08-20T02:02:24;20.70;99.90
49829;DHT22;35723;51.194;5.112;2022-08-20T02:04:50;20.90;99.90
49829;DHT22;35723;51.194;5.112;2022-08-20T02:07:19;20.90;99.90
49829;DHT22;35723;51.194;5.112;2022-08-20T02:09:48;20.60;99.90
49829;DHT22;35723;51.194;5.112;2022-08-20T02:12:14;20.40;99.90
49829;DHT22;35723;51.194;5.112;2022-08-20T02:14:44;20.20;99.90
49829;DHT22;35723;51.194;5.112;2022-08-20T02:17:11;20.20;99.90
49829;DHT22;35723;51.194;5.112;2022-08-20T02:19:46;19.90;99.90
49829;DHT22;35723;51.194;5.112;2022-08-20T02:22:20;20.20;99.90
49829;DHT22;35723;51.194;5.112;2022-08-20T02:24:47;20.00;99.90
49829;DHT22;35723;51.194;5.112;2022-08-20T02:27:13;20.00;99.90
49829;DHT22;35723;51.194;5.112;2022-08-20T02:29:39;20.10;99.90
49829;DHT22;35723;51.194;5.112;2022-08-20T02:32:05;20.30;99.90
49829;DHT22;35723;51.194;5.112;2022-08-20T02:34:33;20.60;99.90
49829;DHT22;35723;51.194;5.112;2022-08-20T02:37:00;20.60;99.90
49829;DHT22;35723;51.194;5.112;2022-08-20T02:39:26;20.80;99.90
49829;DHT22;35723;51.194;5.112;2022-08-20T02:41:52;20.70;99.90
49829;DHT22;35723;51.194;5.112;2022-08-20T02:44:18;20.70;99.90
49829;DHT22;35723;51.194;5.112;2022-08-20T02:46:47;20.70;99.90
49829;DHT22;35723;51.194;5.112;2022-08-20T02:49:18;20.80;99.90
49829;DHT22;35723;51.194;5.112;2022-08-20T02:51:45;20.60;99.90
49829;DHT22;35723;51.194;5.112;2022-08-20T02:54:11;20.70;99.90
49829;DHT22;35723;51.194;5.112;2022-08-20T02:56:37;20.50;99.90
49829;DHT22;35723;51.194;5.112;2022-08-20T02:59:03;20.10;99.90
49829;DHT22;35723;51.194;5.112;2022-08-20T03:01:29;20.00;99.90
49829;DHT22;35723;51.194;5.112;2022-08-20T03:03:56;20.20;99.90
49829;DHT22;35723;51.194;5.112;2022-08-20T03:06:23;20.30;99.90
49829;DHT22;35723;51.194;5.112;2022-08-20T03:08:49;20.30;99.90
49829;DHT22;35723;51.194;5.112;2022-08-20T03:11:15;20.20;99.90
49829;DHT22;35723;51.194;5.112;2022-08-20T03:13:41;20.00;99.90
49829;DHT22;35723;51.194;5.112;2022-08-20T03:16:07;20.00;99.90
49829;DHT22;35723;51.194;5.112;2022-08-20T03:18:37;20.20;99.90
49829;DHT22;35723;51.194;5.112;2022-08-20T03:21:05;20.30;99.90
49829;DHT22;35723;51.194;5.112;2022-08-20T03:23:31;20.20;99.90
49829;DHT22;35723;51.194;5.112;2022-08-20T03:25:57;20.20;99.90
49829;DHT22;35723;51.194;5.112;2022-08-20T03:28:23;20.30;99.90
49829;DHT22;35723;51.194;5.112;2022-08-20T03:30:49;20.40;99.90
49829;DHT22;35723;51.194;5.112;2022-08-20T03:33:16;20.50;99.90
49829;DHT22;35723;51.194;5.112;2022-08-20T03:35:42;20.50;99.90
49829;DHT22;35723;51.194;5.112;2022-08-20T03:38:09;20.30;99.90
49829;DHT22;35723;51.194;5.112;2022-08-20T03:40:36;20.20;99.90
49829;DHT22;35723;51.194;5.112;2022-08-20T03:43:04;20.10;99.90
49829;DHT22;35723;51.194;5.112;2022-08-20T03:45:30;20.10;99.90
49829;DHT22;35723;51.194;5.112;2022-08-20T03:47:57;20.20;99.90
49829;DHT22;35723;51.194;5.112;2022-08-20T03:50:25;20.30;99.90
49829;DHT22;35723;51.194;5.112;2022-08-20T03:52:52;20.10;99.90
49829;DHT22;35723;51.194;5.112;2022-08-20T03:55:18;20.10;99.90
49829;DHT22;35723;51.194;5.112;2022-08-20T03:57:50;20.10;99.90
49829;DHT22;35723;51.194;5.112;2022-08-20T04:00:36;20.00;99.90
49829;DHT22;35723;51.194;5.112;2022-08-20T04:03:02;19.90;99.90
49829;DHT22;35723;51.194;5.112;2022-08-20T04:05:29;19.90;99.90
49829;DHT22;35723;51.194;5.112;2022-08-20T04:07:57;20.00;99.90
49829;DHT22;35723;51.194;5.112;2022-08-20T04:10:24;20.10;99.90
49829;DHT22;35723;51.194;5.112;2022-08-20T04:12:50;20.00;99.90
49829;DHT22;35723;51.194;5.112;2022-08-20T04:15:17;19.90;99.90
49829;DHT22;35723;51.194;5.112;2022-08-20T04:17:46;20.00;99.90
49829;DHT22;35723;51.194;5.112;2022-08-20T04:20:14;20.10;99.90
49829;DHT22;35723;51.194;5.112;2022-08-20T04:22:42;20.30;99.90
49829;DHT22;35723;51.194;5.112;2022-08-20T04:25:08;20.20;99.90
49829;DHT22;35723;51.194;5.112;2022-08-20T04:27:38;20.10;99.90
49829;DHT22;35723;51.194;5.112;2022-08-20T04:30:09;19.80;99.90
49829;DHT22;35723;51.194;5.112;2022-08-20T04:32:39;19.80;99.90
49829;DHT22;35723;51.194;5.112;2022-08-20T04:35:07;19.80;99.90
49829;DHT22;35723;51.194;5.112;2022-08-20T04:37:33;19.80;99.90
49829;DHT22;35723;51.194;5.112;2022-08-20T04:40:09;19.90;99.90
49829;DHT22;35723;51.194;5.112;2022-08-20T04:42:54;19.70;99.90
49829;DHT22;35723;51.194;5.112;2022-08-20T04:45:20;19.80;99.90
49829;DHT22;35723;51.194;5.112;2022-08-20T04:47:47;19.80;99.90
49829;DHT22;35723;51.194;5.112;2022-08-20T04:50:13;19.80;99.90
49829;DHT22;35723;51.194;5.112;2022-08-20T04:52:39;19.60;99.90
49829;DHT22;35723;51.194;5.112;2022-08-20T04:55:06;19.80;99.90
49829;DHT22;35723;51.194;5.112;2022-08-20T04:57:32;19.90;99.90
49829;DHT22;35723;51.194;5.112;2022-08-20T04:59:59;19.90;99.90
49829;DHT22;35723;51.194;5.112;2022-08-20T05:02:25;19.90;99.90
49829;DHT22;35723;51.194;5.112;2022-08-20T05:04:50;20.00;99.90
49829;DHT22;35723;51.194;5.112;2022-08-20T05:07:17;19.90;99.90
49829;DHT22;35723;51.194;5.112;2022-08-20T05:09:45;19.80;99.90
49829;DHT22;35723;51.194;5.112;2022-08-20T05:12:12;19.70;99.90
49829;DHT22;35723;51.194;5.112;2022-08-20T05:14:42;19.70;99.90
49829;DHT22;35723;51.194;5.112;2022-08-20T05:17:08;19.70;99.90
49829;DHT22;35723;51.194;5.112;2022-08-20T05:19:34;19.80;99.90
49829;DHT22;35723;51.194;5.112;2022-08-20T05:22:02;19.80;99.90
49829;DHT22;35723;51.194;5.112;2022-08-20T05:24:28;19.90;99.90
49829;DHT22;35723;51.194;5.112;2022-08-20T05:26:55;19.90;99.90
49829;DHT22;35723;51.194;5.112;2022-08-20T05:29:21;20.00;99.90
49829;DHT22;35723;51.194;5.112;2022-08-20T05:31:48;20.00;99.90
49829;DHT22;35723;51.194;5.112;2022-08-20T05:34:14;20.00;99.90
49829;DHT22;35723;51.194;5.112;2022-08-20T05:36:42;20.00;99.90
49829;DHT22;35723;51.194;5.112;2022-08-20T05:39:09;20.10;99.90
49829;DHT22;35723;51.194;5.112;2022-08-20T05:41:36;20.10;99.90
49829;DHT22;35723;51.194;5.112;2022-08-20T05:44:02;19.90;99.90
49829;DHT22;35723;51.194;5.112;2022-08-20T05:46:29;19.70;99.90
49829;DHT22;35723;51.194;5.112;2022-08-20T05:48:56;19.50;99.90
49829;DHT22;35723;51.194;5.112;2022-08-20T05:51:22;19.60;99.90
49829;DHT22;35723;51.194;5.112;2022-08-20T05:53:47;19.60;99.90
49829;DHT22;35723;51.194;5.112;2022-08-20T05:56:13;19.70;99.90
49829;DHT22;35723;51.194;5.112;2022-08-20T05:58:38;19.80;99.90
49829;DHT22;35723;51.194;5.112;2022-08-20T06:01:04;19.50;99.90
49829;DHT22;35723;51.194;5.112;2022-08-20T06:03:30;19.40;99.90
49829;DHT22;35723;51.194;5.112;2022-08-20T06:06:14;19.50;99.90
49829;DHT22;35723;51.194;5.112;2022-08-20T06:08:40;19.30;99.90
49829;DHT22;35723;51.194;5.112;2022-08-20T06:11:06;19.50;99.90
49829;DHT22;35723;51.194;5.112;2022-08-20T06:13:32;19.50;99.90
49829;DHT22;35723;51.194;5.112;2022-08-20T06:15:59;19.70;99.90
49829;DHT22;35723;51.194;5.112;2022-08-20T06:18:25;19.80;99.90
49829;DHT22;35723;51.194;5.112;2022-08-20T06:20:51;19.70;99.90
49829;DHT22;35723;51.194;5.112;2022-08-20T06:23:17;19.70;99.90
49829;DHT22;35723;51.194;5.112;2022-08-20T06:25:44;19.70;99.90
49829;DHT22;35723;51.194;5.112;2022-08-20T06:28:10;19.70;99.90
49829;DHT22;35723;51.194;5.112;2022-08-20T06:30:37;19.60;99.90
49829;DHT22;35723;51.194;5.112;2022-08-20T06:33:03;19.40;99.90
49829;DHT22;35723;51.194;5.112;2022-08-20T06:35:28;19.30;99.90
49829;DHT22;35723;51.194;5.112;2022-08-20T06:37:54;19.30;99.90
49829;DHT22;35723;51.194;5.112;2022-08-20T06:40:24;19.40;99.90
49829;DHT22;35723;51.194;5.112;2022-08-20T06:42:51;19.50;99.90
49829;DHT22;35723;51.194;5.112;2022-08-20T06:45:22;19.60;99.90
49829;DHT22;35723;51.194;5.112;2022-08-20T06:47:50;19.60;99.90
49829;DHT22;35723;51.194;5.112;2022-08-20T06:50:18;19.80;99.90
49829;DHT22;35723;51.194;5.112;2022-08-20T06:52:44;19.90;99.90
49829;DHT22;35723;51.194;5.112;2022-08-20T06:55:13;19.80;99.90
49829;DHT22;35723;51.194;5.112;2022-08-20T06:57:39;20.00;99.90
49829;DHT22;35723;51.194;5.112;2022-08-20T07:00:13;20.00;99.90
49829;DHT22;35723;51.194;5.112;2022-08-20T07:02:40;19.80;99.90
49829;DHT22;35723;51.194;5.112;2022-08-20T07:05:06;19.80;99.90
49829;DHT22;35723;51.194;5.112;2022-08-20T07:07:32;19.90;99.90
49829;DHT22;35723;51.194;5.112;2022-08-20T07:10:06;19.70;99.90
49829;DHT22;35723;51.194;5.112;2022-08-20T07:12:33;19.60;99.90
49829;DHT22;35723;51.194;5.112;2022-08-20T07:15:02;19.60;99.90
49829;DHT22;35723;51.194;5.112;2022-08-20T07:17:28;19.30;99.90
49829;DHT22;35723;51.194;5.112;2022-08-20T07:19:54;19.30;99.90
49829;DHT22;35723;51.194;5.112;2022-08-20T07:22:19;19.40;99.90
49829;DHT22;35723;51.194;5.112;2022-08-20T07:24:45;19.60;99.90
49829;DHT22;35723;51.194;5.112;2022-08-20T07:27:11;19.80;99.90
49829;DHT22;35723;51.194;5.112;2022-08-20T07:29:36;19.80;99.90
49829;DHT22;35723;51.194;5.112;2022-08-20T07:32:21;19.90;99.90
49829;DHT22;35723;51.194;5.112;2022-08-20T07:34:59;19.90;99.90
49829;DHT22;35723;51.194;5.112;2022-08-20T07:37:25;19.90;99.90
49829;DHT22;35723;51.194;5.112;2022-08-20T07:39:50;19.90;99.90
49829;DHT22;35723;51.194;5.112;2022-08-20T07:42:17;20.00;99.90
49829;DHT22;35723;51.194;5.112;2022-08-20T07:44:43;19.90;99.90
49829;DHT22;35723;51.194;5.112;2022-08-20T07:47:08;19.80;99.90
49829;DHT22;35723;51.194;5.112;2022-08-20T07:49:38;19.80;99.90
49829;DHT22;35723;51.194;5.112;2022-08-20T07:52:05;19.90;99.90
49829;DHT22;35723;51.194;5.112;2022-08-20T07:54:31;19.90;99.90
49829;DHT22;35723;51.194;5.112;2022-08-20T07:57:01;19.90;99.90
49829;DHT22;35723;51.194;5.112;2022-08-20T07:59:30;20.00;99.90
49829;DHT22;35723;51.194;5.112;2022-08-20T08:01:57;20.00;99.90
49829;DHT22;35723;51.194;5.112;2022-08-20T08:04:23;19.90;99.90
49829;DHT22;35723;51.194;5.112;2022-08-20T08:06:50;19.80;99.90
49829;DHT22;35723;51.194;5.112;2022-08-20T08:09:16;19.80;99.90
49829;DHT22;35723;51.194;5.112;2022-08-20T08:11:45;19.90;99.90
49829;DHT22;35723;51.194;5.112;2022-08-20T08:14:20;19.80;99.90
49829;DHT22;35723;51.194;5.112;2022-08-20T08:16:49;19.90;99.90
49829;DHT22;35723;51.194;5.112;2022-08-20T08:19:17;19.90;99.90
49829;DHT22;35723;51.194;5.112;2022-08-20T08:21:43;19.90;99.90
49829;DHT22;35723;51.194;5.112;2022-08-20T08:24:09;20.00;99.90
49829;DHT22;35723;51.194;5.112;2022-08-20T08:26:35;20.10;99.90
49829;DHT22;35723;51.194;5.112;2022-08-20T08:29:01;20.20;99.90
49829;DHT22;35723;51.194;5.112;2022-08-20T08:31:27;20.30;99.90
49829;DHT22;35723;51.194;5.112;2022-08-20T08:33:54;20.50;99.90
49829;DHT22;35723;51.194;5.112;2022-08-20T08:36:21;20.50;99.90
49829;DHT22;35723;51.194;5.112;2022-08-20T08:38:46;20.70;99.90
49829;DHT22;35723;51.194;5.112;2022-08-20T08:41:35;20.70;99.90
49829;DHT22;35723;51.194;5.112;2022-08-20T08:44:10;20.60;99.90
49829;DHT22;35723;51.194;5.112;2022-08-20T08:46:40;20.40;99.90
49829;DHT22;35723;51.194;5.112;2022-08-20T08:49:10;20.60;99.90
49829;DHT22;35723;51.194;5.112;2022-08-20T08:51:39;20.60;99.90
49829;DHT22;35723;51.194;5.112;2022-08-20T08:54:07;20.60;99.90
49829;DHT22;35723;51.194;5.112;2022-08-20T08:56:35;20.40;99.90
49829;DHT22;35723;51.194;5.112;2022-08-20T08:59:06;20.40;99.90
49829;DHT22;35723;51.194;5.112;2022-08-20T09:01:39;20.70;99.90
49829;DHT22;35723;51.194;5.112;2022-08-20T09:04:05;20.70;99.90
49829;DHT22;35723;51.194;5.112;2022-08-20T09:06:31;20.60;99.90
49829;DHT22;35723;51.194;5.112;2022-08-20T09:09:01;20.80;99.90
49829;DHT22;35723;51.194;5.112;2022-08-20T09:11:29;21.10;99.90
49829;DHT22;35723;51.194;5.112;2022-08-20T09:13:54;21.10;99.90
49829;DHT22;35723;51.194;5.112;2022-08-20T09:16:23;21.10;99.90
49829;DHT22;35723;51.194;5.112;2022-08-20T09:18:50;21.10;99.90
49829;DHT22;35723;51.194;5.112;2022-08-20T09:21:16;21.20;99.90
49829;DHT22;35723;51.194;5.112;2022-08-20T09:23:42;21.60;99.90
49829;DHT22;35723;51.194;5.112;2022-08-20T09:26:08;21.70;99.90
49829;DHT22;35723;51.194;5.112;2022-08-20T09:28:35;21.40;99.90
49829;DHT22;35723;51.194;5.112;2022-08-20T09:31:02;21.20;99.90
49829;DHT22;35723;51.194;5.112;2022-08-20T09:33:28;21.30;99.90
49829;DHT22;35723;51.194;5.112;2022-08-20T09:35:53;21.40;99.90
49829;DHT22;35723;51.194;5.112;2022-08-20T09:38:19;21.40;99.90
49829;DHT22;35723;51.194;5.112;2022-08-20T09:40:44;21.60;99.90
49829;DHT22;35723;51.194;5.112;2022-08-20T09:43:11;21.80;99.90
49829;DHT22;35723;51.194;5.112;2022-08-20T09:45:36;21.90;99.90
49829;DHT22;35723;51.194;5.112;2022-08-20T09:48:03;21.60;99.90
49829;DHT22;35723;51.194;5.112;2022-08-20T09:50:30;21.20;99.90
49829;DHT22;35723;51.194;5.112;2022-08-20T09:52:58;21.40;99.90
49829;DHT22;35723;51.194;5.112;2022-08-20T09:55:39;21.80;99.90
49829;DHT22;35723;51.194;5.112;2022-08-20T10:00:53;22.40;99.90
49829;DHT22;35723;51.194;5.112;2022-08-20T10:03:19;22.70;99.90
49829;DHT22;35723;51.194;5.112;2022-08-20T10:05:44;22.50;99.90
49829;DHT22;35723;51.194;5.112;2022-08-20T10:08:11;22.40;99.90
49829;DHT22;35723;51.194;5.112;2022-08-20T10:10:37;21.80;99.90
49829;DHT22;35723;51.194;5.112;2022-08-20T10:13:03;22.10;99.90
49829;DHT22;35723;51.194;5.112;2022-08-20T10:15:30;22.60;99.90
49829;DHT22;35723;51.194;5.112;2022-08-20T10:17:56;23.00;99.90
49829;DHT22;35723;51.194;5.112;2022-08-20T10:20:23;23.40;99.90
49829;DHT22;35723;51.194;5.112;2022-08-20T10:22:49;23.70;99.90
49829;DHT22;35723;51.194;5.112;2022-08-20T10:25:15;23.70;99.90
49829;DHT22;35723;51.194;5.112;2022-08-20T10:27:42;23.40;99.90
49829;DHT22;35723;51.194;5.112;2022-08-20T10:30:10;23.70;99.90
49829;DHT22;35723;51.194;5.112;2022-08-20T10:32:36;23.80;99.90
49829;DHT22;35723;51.194;5.112;2022-08-20T10:35:02;24.00;99.90
49829;DHT22;35723;51.194;5.112;2022-08-20T10:37:28;23.40;99.90
49829;DHT22;35723;51.194;5.112;2022-08-20T10:39:54;23.50;99.90
49829;DHT22;35723;51.194;5.112;2022-08-20T10:42:20;23.30;99.90
49829;DHT22;35723;51.194;5.112;2022-08-20T10:44:45;23.20;99.90
49829;DHT22;35723;51.194;5.112;2022-08-20T10:47:37;23.20;99.90
49829;DHT22;35723;51.194;5.112;2022-08-20T10:50:05;23.30;99.90
49829;DHT22;35723;51.194;5.112;2022-08-20T10:52:31;23.50;99.90
49829;DHT22;35723;51.194;5.112;2022-08-20T10:54:57;23.30;99.90
49829;DHT22;35723;51.194;5.112;2022-08-20T10:57:28;23.30;99.90
49829;DHT22;35723;51.194;5.112;2022-08-20T10:59:56;23.30;99.90
49829;DHT22;35723;51.194;5.112;2022-08-20T11:02:22;23.70;99.90
49829;DHT22;35723;51.194;5.112;2022-08-20T11:04:48;23.40;99.90
49829;DHT22;35723;51.194;5.112;2022-08-20T11:07:35;23.10;99.90
49829;DHT22;35723;51.194;5.112;2022-08-20T11:10:02;22.80;99.90
49829;DHT22;35723;51.194;5.112;2022-08-20T11:12:28;22.80;99.90
49829;DHT22;35723;51.194;5.112;2022-08-20T11:14:54;23.00;99.90
49829;DHT22;35723;51.194;5.112;2022-08-20T11:17:28;23.40;99.90
49829;DHT22;35723;51.194;5.112;2022-08-20T11:19:55;23.90;99.90
49829;DHT22;35723;51.194;5.112;2022-08-20T11:22:21;24.30;99.90
49829;DHT22;35723;51.194;5.112;2022-08-20T11:24:48;24.20;99.90
49829;DHT22;35723;51.194;5.112;2022-08-20T11:27:22;24.50;99.90
49829;DHT22;35723;51.194;5.112;2022-08-20T11:29:48;24.40;99.90
49829;DHT22;35723;51.194;5.112;2022-08-20T11:32:14;24.10;99.90
49829;DHT22;35723;51.194;5.112;2022-08-20T11:34:40;24.20;99.90
49829;DHT22;35723;51.194;5.112;2022-08-20T11:37:06;24.70;99.90
49829;DHT22;35723;51.194;5.112;2022-08-20T11:39:31;24.90;99.90
49829;DHT22;35723;51.194;5.112;2022-08-20T11:41:57;25.00;99.20
49829;DHT22;35723;51.194;5.112;2022-08-20T11:44:22;25.30;98.00
49829;DHT22;35723;51.194;5.112;2022-08-20T11:46:48;25.30;97.20
49829;DHT22;35723;51.194;5.112;2022-08-20T11:49:14;25.60;98.00
49829;DHT22;35723;51.194;5.112;2022-08-20T11:51:40;25.50;96.50
49829;DHT22;35723;51.194;5.112;2022-08-20T11:54:05;24.90;97.60
49829;DHT22;35723;51.194;5.112;2022-08-20T11:56:31;25.10;98.00
49829;DHT22;35723;51.194;5.112;2022-08-20T11:58:57;24.60;97.60
49829;DHT22;35723;51.194;5.112;2022-08-20T12:01:23;24.90;97.40
49829;DHT22;35723;51.194;5.112;2022-08-20T12:03:48;24.90;96.90
49829;DHT22;35723;51.194;5.112;2022-08-20T12:06:14;24.50;98.00
49829;DHT22;35723;51.194;5.112;2022-08-20T12:08:40;24.40;97.60
49829;DHT22;35723;51.194;5.112;2022-08-20T12:11:05;24.50;98.00
49829;DHT22;35723;51.194;5.112;2022-08-20T12:13:33;24.70;97.70
49829;DHT22;35723;51.194;5.112;2022-08-20T12:15:59;24.80;98.60
49829;DHT22;35723;51.194;5.112;2022-08-20T12:18:25;25.30;97.30
49829;DHT22;35723;51.194;5.112;2022-08-20T12:20:51;25.60;96.70
49829;DHT22;35723;51.194;5.112;2022-08-20T12:23:17;25.10;96.30
49829;DHT22;35723;51.194;5.112;2022-08-20T12:25:42;24.30;97.60
49829;DHT22;35723;51.194;5.112;2022-08-20T12:28:09;24.30;98.20
49829;DHT22;35723;51.194;5.112;2022-08-20T12:30:36;24.20;98.30
49829;DHT22;35723;51.194;5.112;2022-08-20T12:33:01;24.30;98.60
49829;DHT22;35723;51.194;5.112;2022-08-20T12:35:27;24.70;97.00
49829;DHT22;35723;51.194;5.112;2022-08-20T12:37:53;25.00;96.60
49829;DHT22;35723;51.194;5.112;2022-08-20T12:40:22;25.50;96.40
49829;DHT22;35723;51.194;5.112;2022-08-20T12:42:48;25.80;96.60
49829;DHT22;35723;51.194;5.112;2022-08-20T12:45:15;26.10;95.10
49829;DHT22;35723;51.194;5.112;2022-08-20T12:47:43;26.30;95.10
49829;DHT22;35723;51.194;5.112;2022-08-20T12:52:38;26.40;94.00
49829;DHT22;35723;51.194;5.112;2022-08-20T12:55:05;26.50;94.80
49829;DHT22;35723;51.194;5.112;2022-08-20T12:57:34;26.70;93.70
49829;DHT22;35723;51.194;5.112;2022-08-20T13:02:32;26.40;93.90
49829;DHT22;35723;51.194;5.112;2022-08-20T13:04:57;25.50;95.20
49829;DHT22;35723;51.194;5.112;2022-08-20T13:07:23;25.10;96.70
49829;DHT22;35723;51.194;5.112;2022-08-20T13:09:49;25.40;96.60
49829;DHT22;35723;51.194;5.112;2022-08-20T13:12:14;25.90;95.20
49829;DHT22;35723;51.194;5.112;2022-08-20T13:14:41;26.30;94.60
49829;DHT22;35723;51.194;5.112;2022-08-20T13:17:07;26.60;93.90
49829;DHT22;35723;51.194;5.112;2022-08-20T13:19:34;26.60;94.90
49829;DHT22;35723;51.194;5.112;2022-08-20T13:21:59;26.30;94.10
49829;DHT22;35723;51.194;5.112;2022-08-20T13:24:25;25.20;95.30
49829;DHT22;35723;51.194;5.112;2022-08-20T13:26:51;25.00;96.30
49829;DHT22;35723;51.194;5.112;2022-08-20T13:29:17;25.40;94.90
49829;DHT22;35723;51.194;5.112;2022-08-20T13:31:43;25.50;94.80
49829;DHT22;35723;51.194;5.112;2022-08-20T13:34:09;25.60;94.70
49829;DHT22;35723;51.194;5.112;2022-08-20T13:36:35;25.20;94.30
49829;DHT22;35723;51.194;5.112;2022-08-20T13:39:03;25.00;94.10
49829;DHT22;35723;51.194;5.112;2022-08-20T13:41:29;25.30;95.60
49829;DHT22;35723;51.194;5.112;2022-08-20T13:43:55;25.90;94.20
49829;DHT22;35723;51.194;5.112;2022-08-20T13:46:21;26.40;92.90
49829;DHT22;35723;51.194;5.112;2022-08-20T13:48:46;25.90;93.70
49829;DHT22;35723;51.194;5.112;2022-08-20T13:51:12;25.60;92.80
49829;DHT22;35723;51.194;5.112;2022-08-20T13:53:38;25.50;93.50
49829;DHT22;35723;51.194;5.112;2022-08-20T13:56:03;25.60;93.10
49829;DHT22;35723;51.194;5.112;2022-08-20T13:58:29;25.10;94.30
49829;DHT22;35723;51.194;5.112;2022-08-20T14:00:55;24.90;94.20
49829;DHT22;35723;51.194;5.112;2022-08-20T14:03:20;25.30;93.60
49829;DHT22;35723;51.194;5.112;2022-08-20T14:05:46;25.20;92.40
49829;DHT22;35723;51.194;5.112;2022-08-20T14:08:14;24.80;93.30
49829;DHT22;35723;51.194;5.112;2022-08-20T14:10:41;25.10;93.10
49829;DHT22;35723;51.194;5.112;2022-08-20T14:13:06;25.40;92.90
49829;DHT22;35723;51.194;5.112;2022-08-20T14:15:33;25.50;92.50
49829;DHT22;35723;51.194;5.112;2022-08-20T14:17:59;25.50;92.20
49829;DHT22;35723;51.194;5.112;2022-08-20T14:20:27;25.60;91.90
49829;DHT22;35723;51.194;5.112;2022-08-20T14:22:54;26.10;91.60
49829;DHT22;35723;51.194;5.112;2022-08-20T14:25:21;26.20;91.60
49829;DHT22;35723;51.194;5.112;2022-08-20T14:27:47;26.40;92.60
49829;DHT22;35723;51.194;5.112;2022-08-20T14:30:15;26.50;91.90
49829;DHT22;35723;51.194;5.112;2022-08-20T14:32:41;26.50;90.70
49829;DHT22;35723;51.194;5.112;2022-08-20T14:35:08;26.40;90.90
49829;DHT22;35723;51.194;5.112;2022-08-20T14:37:37;25.90;91.40
49829;DHT22;35723;51.194;5.112;2022-08-20T14:40:06;25.50;92.00
49829;DHT22;35723;51.194;5.112;2022-08-20T14:42:32;25.60;91.60
49829;DHT22;35723;51.194;5.112;2022-08-20T14:44:58;25.30;91.70
49829;DHT22;35723;51.194;5.112;2022-08-20T14:47:27;24.70;92.30
49829;DHT22;35723;51.194;5.112;2022-08-20T14:49:56;24.50;92.50
49829;DHT22;35723;51.194;5.112;2022-08-20T14:52:23;24.40;92.80
49829;DHT22;35723;51.194;5.112;2022-08-20T14:54:49;24.50;92.60
49829;DHT22;35723;51.194;5.112;2022-08-20T14:57:16;24.80;92.80
49829;DHT22;35723;51.194;5.112;2022-08-20T14:59:43;25.20;91.80
49829;DHT22;35723;51.194;5.112;2022-08-20T15:02:11;25.30;91.80
49829;DHT22;35723;51.194;5.112;2022-08-20T15:04:37;25.30;91.90
49829;DHT22;35723;51.194;5.112;2022-08-20T15:07:05;25.40;92.00
49829;DHT22;35723;51.194;5.112;2022-08-20T15:09:35;25.50;92.40
49829;DHT22;35723;51.194;5.112;2022-08-20T15:12:01;25.50;92.40
49829;DHT22;35723;51.194;5.112;2022-08-20T15:14:27;25.60;92.70
49829;DHT22;35723;51.194;5.112;2022-08-20T15:16:53;25.20;93.60
49829;DHT22;35723;51.194;5.112;2022-08-20T15:19:20;25.00;93.40
49829;DHT22;35723;51.194;5.112;2022-08-20T15:21:46;24.80;93.80
49829;DHT22;35723;51.194;5.112;2022-08-20T15:24:12;24.80;93.60
49829;DHT22;35723;51.194;5.112;2022-08-20T15:26:38;24.70;93.80
49829;DHT22;35723;51.194;5.112;2022-08-20T15:29:04;24.40;94.00
49829;DHT22;35723;51.194;5.112;2022-08-20T15:31:29;24.30;94.80
49829;DHT22;35723;51.194;5.112;2022-08-20T15:33:55;24.60;95.50
49829;DHT22;35723;51.194;5.112;2022-08-20T15:36:21;24.60;95.80
49829;DHT22;35723;51.194;5.112;2022-08-20T15:38:46;24.20;96.20
49829;DHT22;35723;51.194;5.112;2022-08-20T15:41:12;24.10;96.10